Time;durP1;ratioP1;P1;durP2;ratioP2;P2;SDS_P1;SDS_P2;PMS_P1;PMS_P2;Temp;Humidity;BMP_temperature;BMP_pressure;BME280_temperature;BME280_humidity;BME280_pressure;Samples;Min_cycle;Max_cycle;Signal;HPM_P1;HPM_P2
2023/04/30 00:00:42;;;;;;;5.70;5.10;;;;;;;13.57;62.36;99176.59;5088494;28;20059;-75
2023/04/30 00:03:10;;;;;;;5.50;4.88;;;;;;;13.55;62.05;99178.50;5087876;28;20042;-76
2023/04/30 00:05:37;;;;;;;5.50;5.00;;;;;;;13.52;62.08;99189.38;5088076;28;20185;-76
2023/04/30 00:08:04;;;;;;;6.18;5.57;;;;;;;13.29;62.41;99158.16;5088360;28;20068;-75
2023/04/30 00:10:31;;;;;;;5.43;4.93;;;;;;;13.51;62.37;99197.47;5087514;28;20193;-76
2023/04/30 00:12:58;;;;;;;6.20;5.60;;;;;;;13.30;62.30;99151.88;5087938;28;20320;-76
2023/04/30 00:15:25;;;;;;;6.63;5.43;;;;;;;13.45;62.25;99186.28;5087906;28;20037;-76
2023/04/30 00:17:52;;;;;;;6.60;5.38;;;;;;;13.41;62.15;99195.41;5087910;28;20090;-76
2023/04/30 00:20:20;;;;;;;6.47;5.70;;;;;;;13.39;61.56;99199.13;5088103;28;20059;-76
2023/04/30 00:22:46;;;;;;;5.53;4.90;;;;;;;13.36;61.53;99202.88;5070368;28;20044;-76
2023/04/30 00:25:13;;;;;;;5.80;4.85;;;;;;;13.33;61.88;99200.41;5087879;28;20271;-76
2023/04/30 00:27:40;;;;;;;6.15;4.93;;;;;;;13.31;61.63;99214.78;5087781;28;20036;-76
2023/04/30 00:30:08;;;;;;;6.28;5.38;;;;;;;13.28;61.57;99218.50;5087890;28;20056;-76
2023/04/30 00:32:35;;;;;;;5.78;5.18;;;;;;;13.23;61.38;99215.31;5087671;28;20108;-75
2023/04/30 00:35:01;;;;;;;5.55;4.75;;;;;;;13.20;61.22;99204.03;5086726;28;20376;-75
2023/04/30 00:37:30;;;;;;;5.97;5.05;;;;;;;13.16;61.20;99212.22;5087793;28;20045;-75
2023/04/30 00:39:56;;;;;;;6.47;5.03;;;;;;;13.12;61.12;99204.53;5087501;28;20045;-75
2023/04/30 00:42:23;;;;;;;7.07;5.50;;;;;;;13.06;61.31;99211.13;5087521;28;20166;-75
2023/04/30 00:44:52;;;;;;;6.57;5.88;;;;;;;13.05;61.11;99216.56;5087343;28;20048;-75
2023/04/30 00:47:19;;;;;;;5.82;5.22;;;;;;;12.99;61.26;99212.50;5086414;28;20304;-76
2023/04/30 00:49:46;;;;;;;9.40;6.65;;;;;;;12.97;61.28;99210.91;5086464;28;20064;-75
2023/04/30 00:52:13;;;;;;;7.53;6.13;;;;;;;12.93;61.47;99212.91;5087163;28;20046;-76
2023/04/30 00:54:41;;;;;;;7.65;6.57;;;;;;;12.73;61.30;99186.78;5087197;28;20063;-75
2023/04/30 00:57:12;;;;;;;7.18;6.20;;;;;;;11.10;61.26;98915.97;5086311;28;20320;-75
2023/04/30 00:59:39;;;;;;;7.65;6.65;;;;;;;12.90;61.42;99218.44;5087117;28;20102;-75
2023/04/30 01:02:06;;;;;;;6.63;5.75;;;;;;;12.86;61.45;99221.41;5086272;28;20082;-75
2023/04/30 01:04:33;;;;;;;7.95;6.25;;;;;;;12.52;61.33;99167.81;5086209;28;20206;-75
2023/04/30 01:07:01;;;;;;;8.27;6.13;;;;;;;12.85;60.98;99233.84;5086280;28;20277;-75
2023/04/30 01:09:28;;;;;;;6.30;5.30;;;;;;;12.78;60.90;99235.22;5087147;28;20040;-75
2023/04/30 01:12:17;;;;;;;7.55;6.07;;;;;;;12.73;59.98;99240.84;5087110;28;20300;-75
2023/04/30 01:14:54;;;;;;;7.18;6.40;;;;;;;12.69;60.34;99235.81;5086770;28;20044;-75
2023/04/30 01:17:28;;;;;;;7.07;6.38;;;;;;;12.38;60.34;99210.38;5086723;28;20029;-75
2023/04/30 01:19:56;;;;;;;6.80;5.95;;;;;;;12.15;60.85;99178.13;5086097;28;20040;-75
2023/04/30 01:22:35;;;;;;;8.20;6.43;;;;;;;12.54;60.50;99243.00;5086889;28;20059;-74
2023/04/30 01:25:11;;;;;;;7.82;6.35;;;;;;;12.54;60.50;99248.31;5085652;28;20040;-74
2023/04/30 01:28:13;;;;;;;8.05;6.25;;;;;;;12.51;59.67;99241.38;5085677;28;20315;-74
2023/04/30 01:30:43;;;;;;;7.38;6.60;;;;;;;9.30;60.53;98710.84;5086529;28;20044;-76
2023/04/30 01:33:11;;;;;;;7.85;7.00;;;;;;;12.48;60.54;99244.25;5085906;28;20399;-76
2023/04/30 01:35:59;;;;;;;8.50;7.35;;;;;;;12.21;59.59;99215.94;5086776;28;20212;-75
2023/04/30 01:38:41;;;;;;;8.13;7.10;;;;;;;12.41;60.21;99256.22;5086356;28;20204;-76
2023/04/30 01:41:13;;;;;;;8.35;6.82;;;;;;;12.38;60.43;99264.38;5086809;28;20062;-76
2023/04/30 01:43:50;;;;;;;8.75;7.40;;;;;;;12.39;60.20;99262.59;5085236;28;20064;-75
2023/04/30 01:46:24;;;;;;;8.43;7.45;;;;;;;10.50;60.09;98946.19;5086188;28;20048;-76
2023/04/30 01:49:01;;;;;;;9.85;8.55;;;;;;;11.85;60.41;99188.03;5086341;28;20090;-75
2023/04/30 01:51:32;;;;;;;8.95;7.90;;;;;;;11.80;60.46;99176.84;5085516;28;20279;-75
2023/04/30 01:54:03;;;;;;;10.10;8.02;;;;;;;11.81;60.33;99198.00;5085174;28;20120;-75
2023/04/30 01:56:36;;;;;;;8.93;8.00;;;;;;;12.29;60.50;99258.81;5085846;28;20098;-77
2023/04/30 01:59:05;;;;;;;11.70;9.27;;;;;;;11.94;60.59;99202.53;5085976;28;20205;-75
2023/04/30 02:01:33;;;;;;;9.75;8.75;;;;;;;12.04;60.34;99211.66;5084817;28;20056;-75
2023/04/30 02:04:02;;;;;;;11.52;8.95;;;;;;;12.26;60.58;99261.66;5085520;28;20044;-76
2023/04/30 02:06:30;;;;;;;11.10;9.45;;;;;;;11.91;60.43;99208.03;5086071;28;20036;-75
2023/04/30 02:09:01;;;;;;;12.05;10.80;;;;;;;12.23;60.42;99291.06;5085028;28;20046;-76
2023/04/30 02:11:28;;;;;;;11.20;9.50;;;;;;;12.19;60.72;99270.00;5085830;28;20036;-76
2023/04/30 02:13:55;;;;;;;10.30;8.70;;;;;;;12.21;60.29;99277.88;5084892;28;20041;-77
2023/04/30 02:16:24;;;;;;;12.32;10.02;;;;;;;12.18;60.57;99275.44;5086027;28;20036;-76
2023/04/30 02:18:50;;;;;;;10.52;9.43;;;;;;;12.17;60.30;99281.69;5085975;28;20170;-76
2023/04/30 02:21:17;;;;;;;11.38;9.82;;;;;;;12.13;60.54;99278.34;5085936;28;20040;-76
2023/04/30 02:23:44;;;;;;;12.60;10.23;;;;;;;12.13;60.70;99283.66;5086229;28;20309;-75
2023/04/30 02:26:11;;;;;;;11.43;10.30;;;;;;;12.15;60.43;99288.88;5085513;28;20044;-76
2023/04/30 02:28:37;;;;;;;10.60;9.43;;;;;;;12.12;60.50;99284.59;5085110;28;20040;-75
2023/04/30 02:31:04;;;;;;;10.60;9.38;;;;;;;11.67;60.77;99213.94;5084705;28;20066;-76
2023/04/30 02:33:32;;;;;;;11.80;10.02;;;;;;;12.08;60.68;99284.88;5085762;28;20071;-76
2023/04/30 02:36:00;;;;;;;11.20;10.05;;;;;;;12.06;60.56;99292.09;5084589;28;20115;-75
2023/04/30 02:38:27;;;;;;;11.80;9.85;;;;;;;12.07;60.80;99293.81;5085409;28;20040;-76
2023/04/30 02:40:54;;;;;;;12.82;10.20;;;;;;;11.03;60.57;99125.00;5085395;28;20040;-75
2023/04/30 02:43:21;;;;;;;11.30;10.15;;;;;;;11.89;60.59;99266.56;5084220;28;20240;-75
2023/04/30 02:45:47;;;;;;;10.15;9.07;;;;;;;12.08;60.68;99299.03;5085269;28;20106;-75
2023/04/30 02:48:14;;;;;;;10.43;9.35;;;;;;;12.05;60.57;99304.53;5085337;28;20036;-75
2023/04/30 02:50:42;;;;;;;10.73;9.63;;;;;;;11.91;60.59;99293.00;5085042;28;20041;-76
2023/04/30 02:53:09;;;;;;;12.13;9.95;;;;;;;12.03;60.81;99305.56;5085843;28;20066;-76
2023/04/30 02:55:36;;;;;;;10.98;9.77;;;;;;;12.04;60.51;99312.59;5084488;28;20099;-76
2023/04/30 02:58:03;;;;;;;11.48;10.35;;;;;;;12.02;60.73;99307.38;5085853;28;20044;-76
2023/04/30 03:00:30;;;;;;;13.30;9.27;;;;;;;12.03;60.76;99313.53;5085279;28;20112;-75
2023/04/30 03:02:57;;;;;;;11.07;9.85;;;;;;;11.36;60.55;99200.81;5084703;28;20147;-76
2023/04/30 03:05:24;;;;;;;10.40;9.32;;;;;;;11.05;60.81;99172.66;5084417;28;20036;-75
2023/04/30 03:07:52;;;;;;;11.32;9.60;;;;;;;11.41;60.61;99210.22;5085177;28;20109;-75
2023/04/30 03:10:19;;;;;;;11.63;10.43;;;;;;;10.93;60.87;99134.47;5085496;28;20281;-75
2023/04/30 03:12:45;;;;;;;11.23;9.75;;;;;;;11.94;60.85;99306.09;5085200;28;20064;-76
2023/04/30 03:15:12;;;;;;;11.32;8.95;;;;;;;11.93;60.95;99296.44;5085240;28;20404;-75
2023/04/30 03:17:39;;;;;;;11.32;10.15;;;;;;;11.67;60.70;99267.00;5089347;28;20051;-76
2023/04/30 03:20:07;;;;;;;11.57;10.45;;;;;;;11.90;60.65;99308.09;5089304;28;20036;-75
2023/04/30 03:22:34;;;;;;;12.18;10.45;;;;;;;11.49;60.66;99250.41;5089179;28;20051;-76
2023/04/30 03:25:02;;;;;;;11.02;9.93;;;;;;;11.68;60.68;99276.69;5089153;28;20288;-76
2023/04/30 03:27:28;;;;;;;12.50;10.43;;;;;;;11.69;60.75;99282.84;5088797;28;20039;-76
2023/04/30 03:29:56;;;;;;;10.65;9.55;;;;;;;11.84;60.71;99319.94;5088018;28;20189;-75
2023/04/30 03:32:22;;;;;;;10.38;9.23;;;;;;;11.85;60.73;99319.00;5089026;28;20040;-75
2023/04/30 03:34:50;;;;;;;12.02;9.55;;;;;;;11.81;60.78;99312.16;5087893;28;20036;-75
2023/04/30 03:37:17;;;;;;;11.65;10.48;;;;;;;11.76;60.87;99321.34;5088930;28;20048;-76
2023/04/30 03:39:44;;;;;;;11.32;10.18;;;;;;;11.72;60.72;99320.69;5088612;28;20108;-75
2023/04/30 03:42:12;;;;;;;12.02;10.65;;;;;;;11.72;61.11;99328.66;5088516;28;20196;-75
2023/04/30 03:44:39;;;;;;;12.20;10.00;;;;;;;11.75;60.97;99332.94;5088372;28;20060;-75
2023/04/30 03:47:05;;;;;;;11.95;9.82;;;;;;;11.75;60.88;99325.81;5087614;28;20041;-76
2023/04/30 03:49:32;;;;;;;10.27;9.20;;;;;;;11.71;60.87;99326.09;5088475;28;20040;-75
2023/04/30 03:51:59;;;;;;;11.02;8.82;;;;;;;11.74;60.86;99336.53;5088707;28;20281;-76
2023/04/30 03:54:26;;;;;;;10.75;9.32;;;;;;;11.73;60.95;99327.72;5087529;28;20036;-75
2023/04/30 03:56:53;;;;;;;10.63;9.52;;;;;;;11.70;60.96;99330.53;5088298;28;20037;-76
2023/04/30 03:59:21;;;;;;;12.95;10.95;;;;;;;10.75;61.03;99175.28;5087417;28;20392;-75
2023/04/30 04:01:48;;;;;;;9.35;8.35;;;;;;;11.70;60.91;99329.69;5087424;28;20115;-75
2023/04/30 04:04:15;;;;;;;11.13;9.18;;;;;;;11.69;61.39;99338.59;5087370;28;20285;-75
2023/04/30 04:06:42;;;;;;;11.63;9.30;;;;;;;11.71;61.18;99339.38;5087181;28;20068;-75
2023/04/30 04:09:09;;;;;;;12.30;9.00;;;;;;;11.69;61.05;99342.13;5088090;28;20045;-75
2023/04/30 04:11:35;;;;;;;10.85;9.75;;;;;;;11.69;61.37;99346.56;5087512;28;20032;-75
2023/04/30 04:14:02;;;;;;;10.82;9.70;;;;;;;11.67;61.18;99346.66;5088003;28;20062;-75
2023/04/30 04:16:30;;;;;;;11.40;9.93;;;;;;;11.67;61.52;99351.97;5088500;28;20040;-75
2023/04/30 04:18:57;;;;;;;10.13;9.05;;;;;;;11.68;61.50;99356.34;5087754;28;20287;-75
2023/04/30 04:21:23;;;;;;;10.88;8.77;;;;;;;11.69;61.25;99362.50;5087851;28;20041;-75
2023/04/30 04:23:50;;;;;;;10.30;8.75;;;;;;;11.73;61.45;99364.88;5087829;28;20196;-75
2023/04/30 04:26:18;;;;;;;11.18;9.63;;;;;;;11.72;61.18;99373.78;5087259;28;20316;-75
2023/04/30 04:28:46;;;;;;;11.23;9.38;;;;;;;10.71;61.17;99201.13;5087160;28;20095;-75
2023/04/30 04:31:13;;;;;;;9.48;8.48;;;;;;;11.69;61.29;99365.16;5087182;28;20103;-75
2023/04/30 04:33:41;;;;;;;9.98;8.73;;;;;;;11.69;61.53;99373.13;5086826;28;20036;-75
2023/04/30 04:36:08;;;;;;;10.38;9.27;;;;;;;10.42;61.31;99164.84;5087590;28;20066;-75
2023/04/30 04:38:35;;;;;;;8.82;7.93;;;;;;;11.69;61.30;99375.78;5087567;28;20044;-75
2023/04/30 04:41:01;;;;;;;10.27;9.13;;;;;;;11.70;61.39;99373.03;5087808;28;20297;-75
2023/04/30 04:43:28;;;;;;;10.15;8.82;;;;;;;11.73;61.18;99378.16;5087367;28;20060;-75
2023/04/30 04:45:55;;;;;;;10.77;9.68;;;;;;;11.45;61.11;99333.81;5087490;28;20041;-75
2023/04/30 04:48:22;;;;;;;10.38;8.52;;;;;;;11.73;61.37;99390.56;5086483;28;20036;-75
2023/04/30 04:50:51;;;;;;;9.13;8.23;;;;;;;11.27;61.33;99307.50;5086773;28;20044;-76
2023/04/30 04:53:17;;;;;;;9.77;8.77;;;;;;;11.76;61.43;99393.91;5086474;28;20115;-75
2023/04/30 04:55:44;;;;;;;10.85;9.75;;;;;;;11.79;61.25;99393.72;5087391;28;20219;-75
2023/04/30 04:58:11;;;;;;;11.75;9.13;;;;;;;11.78;61.12;99397.31;5087142;28;20036;-75
2023/04/30 05:00:39;;;;;;;9.30;8.30;;;;;;;11.81;61.34;99397.13;5086333;28;20048;-75
2023/04/30 05:03:05;;;;;;;10.38;9.25;;;;;;;11.86;61.02;99411.00;5087680;28;20046;-76
2023/04/30 05:05:32;;;;;;;9.82;8.38;;;;;;;11.89;60.98;99402.84;5087294;28;20050;-75
2023/04/30 05:08:00;;;;;;;12.32;8.70;;;;;;;11.91;60.93;99401.91;5086173;28;20300;-76
2023/04/30 05:10:27;;;;;;;9.95;8.88;;;;;;;11.94;60.85;99407.03;5086969;28;20040;-75
2023/04/30 05:12:53;;;;;;;10.85;8.93;;;;;;;11.99;60.78;99403.16;5087155;28;20032;-75
2023/04/30 05:15:20;;;;;;;9.80;8.80;;;;;;;11.98;60.77;99412.06;5087086;28;20195;-76
2023/04/30 05:17:47;;;;;;;9.18;8.27;;;;;;;11.97;60.92;99405.03;5086791;28;20040;-75
2023/04/30 05:20:14;;;;;;;10.27;9.15;;;;;;;12.03;61.00;99419.78;5086144;28;20037;-75
2023/04/30 05:22:40;;;;;;;10.18;9.07;;;;;;;12.05;60.55;99415.25;5085775;28;20354;-75
2023/04/30 05:25:09;;;;;;;11.15;8.80;;;;;;;12.08;60.55;99418.56;5086587;28;20082;-75
2023/04/30 05:27:36;;;;;;;11.63;10.32;;;;;;;12.14;60.61;99422.66;5086823;28;20070;-75
2023/04/30 05:30:03;;;;;;;10.18;9.05;;;;;;;12.19;60.34;99426.78;5086705;28;20036;-76
2023/04/30 05:32:30;;;;;;;9.55;8.45;;;;;;;12.25;60.14;99424.69;5086473;28;20304;-75
2023/04/30 05:34:57;;;;;;;10.05;8.65;;;;;;;12.07;59.91;99400.91;5086491;28;20052;-75
2023/04/30 05:37:23;;;;;;;10.60;9.50;;;;;;;11.83;59.77;99362.53;5085888;28;20042;-75
2023/04/30 05:39:52;;;;;;;11.60;9.13;;;;;;;12.34;59.58;99434.75;5085296;28;20040;-75
2023/04/30 05:42:20;;;;;;;9.40;8.35;;;;;;;12.04;59.76;99379.00;5086074;28;20313;-75
2023/04/30 05:44:49;;;;;;;10.23;9.02;;;;;;;12.38;59.69;99441.59;5085172;28;20049;-75
2023/04/30 05:47:16;;;;;;;10.88;7.90;;;;;;;12.41;59.72;99431.63;5086683;28;20040;-75
2023/04/30 05:49:43;;;;;;;9.65;8.38;;;;;;;12.45;59.98;99443.78;5086466;28;20078;-75
2023/04/30 05:52:10;;;;;;;9.60;8.27;;;;;;;12.28;59.60;99413.88;5086389;28;20044;-75
2023/04/30 05:54:37;;;;;;;13.32;10.35;;;;;;;12.52;59.70;99454.91;5086169;28;20044;-75
2023/04/30 05:57:04;;;;;;;9.55;8.45;;;;;;;12.54;59.49;99455.66;5086084;28;20036;-75
2023/04/30 05:59:32;;;;;;;11.40;8.63;;;;;;;12.58;59.52;99451.84;5086261;28;20252;-75
2023/04/30 06:01:59;;;;;;;9.77;8.77;;;;;;;12.62;59.25;99456.03;5084986;28;20216;-75
2023/04/30 06:04:25;;;;;;;8.55;7.75;;;;;;;11.96;58.84;99336.94;5086168;28;20040;-75
2023/04/30 06:06:52;;;;;;;9.75;7.90;;;;;;;12.71;58.94;99450.16;5085337;28;20040;-75
2023/04/30 06:09:19;;;;;;;9.20;8.30;;;;;;;12.78;58.69;99461.25;5085740;28;20040;-75
2023/04/30 06:11:49;;;;;;;9.18;8.27;;;;;;;12.85;58.39;99451.94;5084849;28;20090;-75
2023/04/30 06:14:16;;;;;;;9.10;7.05;;;;;;;12.57;58.09;99396.13;5086295;28;20079;-75
2023/04/30 06:16:44;;;;;;;8.15;7.35;;;;;;;12.97;57.57;99458.28;5084813;28;20086;-74
2023/04/30 06:19:11;;;;;;;10.02;8.15;;;;;;;13.01;57.70;99455.34;5085611;28;20047;-75
2023/04/30 06:21:38;;;;;;;6.97;6.28;;;;;;;13.08;57.03;99451.34;5086159;28;20040;-75
2023/04/30 06:24:05;;;;;;;7.32;6.53;;;;;;;13.16;56.75;99457.03;5085857;28;20089;-75
2023/04/30 06:26:32;;;;;;;9.52;8.23;;;;;;;13.27;56.81;99450.16;5086141;28;20052;-75
2023/04/30 06:28:59;;;;;;;8.98;7.18;;;;;;;13.40;56.65;99454.59;5084599;28;20036;-75
2023/04/30 06:31:26;;;;;;;8.98;6.90;;;;;;;13.54;56.03;99448.41;5084771;28;20040;-75
2023/04/30 06:33:54;;;;;;;8.40;7.45;;;;;;;13.72;55.73;99454.31;5085936;28;20306;-75
2023/04/30 06:36:21;;;;;;;8.77;7.65;;;;;;;13.91;55.16;99456.59;5085100;28;20044;-75
2023/04/30 06:38:48;;;;;;;8.38;7.20;;;;;;;14.07;54.50;99447.47;5084530;28;20296;-75
2023/04/30 06:41:15;;;;;;;8.15;7.35;;;;;;;14.27;53.90;99443.44;5085414;28;20048;-75
2023/04/30 06:43:43;;;;;;;9.52;7.55;;;;;;;14.50;52.98;99440.97;5085078;28;20057;-75
2023/04/30 06:46:10;;;;;;;9.02;7.20;;;;;;;14.71;52.15;99439.53;5085645;28;20047;-75
2023/04/30 06:48:38;;;;;;;8.35;7.15;;;;;;;14.95;51.57;99444.94;5085550;28;20033;-75
2023/04/30 06:51:06;;;;;;;8.88;6.97;;;;;;;15.26;50.94;99443.56;5091515;28;20036;-75
2023/04/30 06:53:33;;;;;;;7.78;6.78;;;;;;;15.52;50.68;99437.16;5092245;28;20036;-75
2023/04/30 06:56:00;;;;;;;8.48;7.57;;;;;;;15.79;50.23;99438.78;5092270;28;20106;-75
2023/04/30 06:58:26;;;;;;;9.15;7.18;;;;;;;15.84;49.94;99394.72;5091167;28;20036;-75
2023/04/30 07:00:53;;;;;;;7.07;6.25;;;;;;;16.08;49.22;99393.78;5091389;28;20048;-75
2023/04/30 07:03:20;;;;;;;7.88;6.43;;;;;;;16.56;48.36;99442.63;5091929;28;20033;-74
2023/04/30 07:05:47;;;;;;;7.18;6.40;;;;;;;16.74;47.95;99438.53;5091096;28;20043;-75
2023/04/30 07:08:15;;;;;;;7.97;5.95;;;;;;;16.91;48.00;99440.72;5091289;28;20040;-75
2023/04/30 07:10:42;;;;;;;7.50;5.97;;;;;;;17.13;47.20;99434.47;5092380;28;20276;-74
2023/04/30 07:13:09;;;;;;;7.18;6.40;;;;;;;16.89;46.85;99374.88;5092378;28;20075;-74
2023/04/30 07:15:36;;;;;;;7.80;7.03;;;;;;;17.36;47.10;99435.31;5091909;28;20059;-75
2023/04/30 07:18:03;;;;;;;6.70;6.00;;;;;;;17.48;46.46;99426.28;5091812;28;20036;-74
2023/04/30 07:20:30;;;;;;;7.25;6.25;;;;;;;17.59;46.38;99430.75;5090796;28;20326;-75
2023/04/30 07:22:56;;;;;;;7.53;6.45;;;;;;;17.53;46.40;99431.25;5092305;28;20050;-75
2023/04/30 07:25:25;;;;;;;8.77;5.90;;;;;;;17.50;45.84;99416.28;5091926;28;20350;-75
2023/04/30 07:27:53;;;;;;;6.07;5.43;;;;;;;17.77;46.16;99434.59;5090829;28;20200;-74
2023/04/30 07:30:21;;;;;;;10.68;6.70;;;;;;;18.02;45.88;99425.34;5091656;28;20372;-75
2023/04/30 07:32:49;;;;;;;6.90;6.18;;;;;;;17.53;45.69;99348.19;5091802;28;20048;-75
2023/04/30 07:35:16;;;;;;;7.68;6.35;;;;;;;18.22;45.70;99424.50;5091567;28;20050;-74
2023/04/30 07:37:42;;;;;;;8.02;6.03;;;;;;;18.37;45.08;99426.84;5091754;28;20036;-75
2023/04/30 07:40:12;;;;;;;7.50;5.57;;;;;;;17.92;45.12;99331.44;5090737;28;20301;-75
2023/04/30 07:42:41;;;;;;;9.07;6.25;;;;;;;18.73;44.35;99436.25;5090285;28;20119;-75
2023/04/30 07:45:09;;;;;;;6.22;5.38;;;;;;;19.01;44.28;99434.66;5091801;28;20284;-75
2023/04/30 07:47:35;;;;;;;7.68;5.80;;;;;;;19.21;43.92;99431.06;5091399;28;20063;-75
2023/04/30 07:50:02;;;;;;;7.53;5.60;;;;;;;19.23;43.18;99434.47;5091712;28;20170;-75
2023/04/30 07:52:29;;;;;;;7.78;5.97;;;;;;;19.28;42.85;99436.72;5091789;28;20033;-75
2023/04/30 07:54:56;;;;;;;7.60;5.70;;;;;;;19.36;42.56;99428.81;5091730;28;20174;-75
2023/04/30 07:57:25;;;;;;;6.40;5.60;;;;;;;19.49;42.63;99440.19;5091679;28;20086;-75
2023/04/30 07:59:53;;;;;;;8.02;5.30;;;;;;;19.34;41.81;99387.81;5090526;28;20071;-75
2023/04/30 08:02:20;;;;;;;6.93;5.68;;;;;;;19.69;42.18;99427.63;5087809;28;20051;-75
2023/04/30 08:04:47;;;;;;;9.20;5.43;;;;;;;19.84;42.12;99428.94;5087238;28;20050;-74
2023/04/30 08:07:15;;;;;;;6.40;5.38;;;;;;;19.85;41.51;99425.25;5087806;28;20368;-74
2023/04/30 08:09:42;;;;;;;10.60;5.40;;;;;;;19.81;41.57;99434.59;5087253;28;20112;-75
2023/04/30 08:12:09;;;;;;;7.88;5.50;;;;;;;19.76;41.30;99436.84;5087842;28;20315;-75
2023/04/30 08:14:36;;;;;;;6.90;5.85;;;;;;;19.74;41.36;99445.03;5087067;28;20070;-75
2023/04/30 08:17:04;;;;;;;9.23;5.68;;;;;;;19.70;41.03;99442.78;5088028;28;20292;-75
2023/04/30 08:19:31;;;;;;;5.95;5.13;;;;;;;19.73;40.89;99440.66;5087815;28;20112;-75
2023/04/30 08:21:58;;;;;;;10.75;6.10;;;;;;;19.81;41.02;99443.50;5087600;28;20048;-75
2023/04/30 08:24:25;;;;;;;6.50;5.57;;;;;;;19.98;41.05;99449.19;5087802;28;20040;-75
2023/04/30 08:26:52;;;;;;;6.40;5.30;;;;;;;19.96;40.76;99424.25;5088560;28;20219;-75
2023/04/30 08:29:19;;;;;;;7.35;5.28;;;;;;;19.89;41.09;99456.25;5087554;28;20040;-75
2023/04/30 08:31:46;;;;;;;6.50;5.05;;;;;;;19.68;41.10;99450.97;5088237;28;20239;-75
2023/04/30 08:34:14;;;;;;;7.15;5.95;;;;;;;19.41;40.25;99451.66;5086665;28;20043;-75
2023/04/30 08:36:41;;;;;;;7.03;6.32;;;;;;;19.10;41.43;99466.94;5086782;28;20040;-75
2023/04/30 08:39:08;;;;;;;9.05;6.38;;;;;;;18.64;41.73;99412.91;5086812;28;20044;-75
2023/04/30 08:41:36;;;;;;;6.78;5.60;;;;;;;18.48;42.18;99435.66;5087745;28;20043;-75
2023/04/30 08:44:04;;;;;;;6.85;4.65;;;;;;;18.52;42.31;99469.34;5086200;28;20056;-75
2023/04/30 08:46:34;;;;;;;9.00;4.88;;;;;;;18.35;42.32;99463.69;5087093;28;20036;-75
2023/04/30 08:49:01;;;;;;;6.10;4.72;;;;;;;18.22;43.21;99477.31;5086479;28;20032;-75
2023/04/30 08:51:31;;;;;;;6.95;4.72;;;;;;;17.78;41.73;99424.72;5087534;28;20040;-75
2023/04/30 08:53:58;;;;;;;6.63;5.10;;;;;;;17.95;42.86;99480.47;5086655;28;20055;-75
2023/04/30 08:56:26;;;;;;;10.25;5.30;;;;;;;17.84;43.13;99480.53;5087133;28;20044;-74
2023/04/30 08:58:53;;;;;;;9.77;5.63;;;;;;;17.72;43.13;99489.56;5069712;28;20043;-74
2023/04/30 09:01:20;;;;;;;7.88;5.65;;;;;;;16.53;43.19;99303.75;5087212;28;20050;-75
2023/04/30 09:03:47;;;;;;;8.57;5.72;;;;;;;16.94;42.89;99402.97;5085940;28;20328;-74
2023/04/30 09:06:16;;;;;;;7.25;5.38;;;;;;;17.13;42.93;99463.09;5086770;28;20049;-75
2023/04/30 09:08:46;;;;;;;8.07;5.65;;;;;;;17.21;43.17;99495.50;5086738;28;20075;-75
2023/04/30 09:11:22;;;;;;;7.32;5.35;;;;;;;17.03;42.10;99468.31;5086100;28;20300;-74
2023/04/30 09:13:51;;;;;;;6.95;5.10;;;;;;;17.12;43.60;99488.16;5084774;28;20074;-75
2023/04/30 09:16:18;;;;;;;10.50;5.80;;;;;;;16.76;43.79;99435.72;5086778;28;20200;-75
2023/04/30 09:18:46;;;;;;;6.97;5.82;;;;;;;16.81;43.42;99460.31;5086482;28;20083;-74
2023/04/30 09:21:12;;;;;;;8.05;6.28;;;;;;;16.87;43.50;99489.25;5085828;28;20045;-75
2023/04/30 09:23:54;;;;;;;10.13;5.53;;;;;;;16.47;41.65;99432.63;5085789;28;20036;-74
2023/04/30 09:26:26;;;;;;;7.10;5.72;;;;;;;16.68;43.37;99487.19;5086538;28;20032;-74
2023/04/30 09:28:57;;;;;;;9.52;5.88;;;;;;;16.62;42.58;99480.44;5086510;28;20047;-75
2023/04/30 09:31:25;;;;;;;6.80;5.65;;;;;;;16.63;43.04;99486.66;5086642;28;20115;-75
2023/04/30 09:33:52;;;;;;;7.05;5.43;;;;;;;16.14;43.47;99399.53;5086326;28;20036;-75
2023/04/30 09:36:20;;;;;;;6.05;5.43;;;;;;;16.72;43.15;99488.63;5085517;28;20293;-75
2023/04/30 09:38:47;;;;;;;8.25;7.10;;;;;;;16.94;43.20;99475.28;5086483;28;20063;-75
2023/04/30 09:41:26;;;;;;;7.47;5.85;;;;;;;17.25;41.46;99476.38;5086572;28;20166;-75
2023/04/30 09:43:53;;;;;;;7.35;6.10;;;;;;;17.20;42.62;99451.78;5086126;28;20110;-74
2023/04/30 09:46:21;;;;;;;9.50;6.32;;;;;;;17.54;42.48;99476.69;5084949;28;20090;-75
2023/04/30 09:48:57;;;;;;;8.50;6.25;;;;;;;16.89;41.54;99326.69;5085533;28;20067;-74
2023/04/30 09:51:24;;;;;;;8.80;6.47;;;;;;;17.15;42.06;99321.88;5085495;28;20150;-74
2023/04/30 09:53:51;;;;;;;7.85;6.53;;;;;;;18.16;41.66;99459.03;5085152;28;20166;-74
2023/04/30 09:56:21;;;;;;;10.55;6.70;;;;;;;18.30;41.12;99461.41;5085935;28;20050;-75
2023/04/30 09:58:52;;;;;;;7.18;6.22;;;;;;;18.46;40.97;99452.88;5085852;28;20231;-75
2023/04/30 10:01:20;;;;;;;6.63;5.25;;;;;;;18.51;40.60;99454.19;5085978;28;20048;-75
2023/04/30 10:03:48;;;;;;;6.78;6.03;;;;;;;18.50;40.99;99451.66;5086471;28;20056;-74
2023/04/30 10:06:17;;;;;;;9.40;6.00;;;;;;;18.49;40.85;99458.00;5085867;28;20067;-75
2023/04/30 10:08:47;;;;;;;6.90;5.75;;;;;;;18.19;40.99;99403.31;5085709;28;20040;-75
2023/04/30 10:11:18;;;;;;;6.35;5.57;;;;;;;18.51;41.03;99454.19;5085941;28;20138;-75
2023/04/30 10:13:53;;;;;;;8.25;6.38;;;;;;;18.54;40.48;99445.06;5084824;28;20044;-75
2023/04/30 10:16:28;;;;;;;6.82;5.82;;;;;;;18.44;39.96;99430.69;5085620;28;20059;-75
2023/04/30 10:18:59;;;;;;;7.13;5.82;;;;;;;18.65;40.51;99447.66;5085897;28;20040;-75
2023/04/30 10:21:27;;;;;;;8.60;6.70;;;;;;;18.71;40.91;99433.69;5084770;28;20047;-75
2023/04/30 10:23:55;;;;;;;6.07;5.18;;;;;;;18.54;40.59;99389.53;5084334;28;20390;-75
2023/04/30 10:26:23;;;;;;;6.93;5.90;;;;;;;18.78;40.30;99426.81;5085549;28;20075;-75
2023/04/30 10:28:53;;;;;;;9.98;6.75;;;;;;;18.78;40.19;99426.81;5068159;28;20040;-75
2023/04/30 10:31:21;;;;;;;8.45;5.70;;;;;;;18.94;40.33;99429.00;5084975;28;20036;-75
2023/04/30 10:33:58;;;;;;;7.22;5.43;;;;;;;18.35;38.87;99300.03;5085508;28;20111;-75
2023/04/30 10:36:33;;;;;;;7.22;4.55;;;;;;;19.26;39.49;99415.38;5085449;28;20078;-75
2023/04/30 10:38:59;;;;;;;;;;;;;;;19.35;37.95;99406.47;5085140;28;20064;-75
2023/04/30 10:41:28;;;;;;;5.63;4.97;;;;;;;19.37;40.29;99417.09;5085432;28;19926;-75
2023/04/30 10:43:58;;;;;;;7.93;5.18;;;;;;;18.77;39.54;99311.50;5085449;28;20102;-75
2023/04/30 10:46:27;;;;;;;5.93;5.22;;;;;;;19.36;39.73;99400.13;5085258;28;20044;-75
2023/04/30 10:48:55;;;;;;;6.43;5.07;;;;;;;19.30;39.35;99398.00;5085577;28;20036;-75
2023/04/30 10:51:22;;;;;;;5.60;5.07;;;;;;;19.33;39.46;99400.41;5084478;28;20040;-75
2023/04/30 10:53:50;;;;;;;5.75;4.90;;;;;;;19.31;39.55;99397.00;5084691;28;20036;-75
2023/04/30 10:56:31;;;;;;;6.32;4.60;;;;;;;19.04;37.64;99341.25;5068991;28;20045;-75
2023/04/30 10:59:01;;;;;;;4.95;4.45;;;;;;;18.74;39.41;99296.53;5085631;28;20045;-75
2023/04/30 11:01:29;;;;;;;7.75;5.90;;;;;;;19.52;39.72;99405.81;5085247;28;20051;-75
2023/04/30 11:04:14;;;;;;;7.07;6.22;;;;;;;19.61;37.88;99387.16;5085206;28;20094;-75
2023/04/30 11:06:55;;;;;;;6.53;5.63;;;;;;;19.59;37.11;99383.75;5085697;28;20170;-75
2023/04/30 11:09:36;;;;;;;5.70;5.15;;;;;;;19.48;37.54;99387.44;5085288;28;20036;-76
2023/04/30 11:12:04;;;;;;;7.03;6.05;;;;;;;18.94;39.57;99310.84;5084264;28;20059;-75
2023/04/30 11:14:34;;;;;;;7.90;5.80;;;;;;;19.31;39.58;99382.72;5085013;28;20048;-75
2023/04/30 11:17:01;;;;;;;7.28;5.78;;;;;;;19.20;39.94;99387.22;5067870;28;20191;-75
2023/04/30 11:19:29;;;;;;;11.23;6.00;;;;;;;18.62;40.33;99319.09;5085555;28;20087;-75
2023/04/30 11:22:19;;;;;;;5.80;5.20;;;;;;;18.97;38.92;99382.22;5084185;28;20143;-76
2023/04/30 11:25:04;;;;;;;6.18;5.57;;;;;;;18.85;38.75;99386.84;5084238;28;20047;-76
2023/04/30 11:27:32;;;;;;;6.53;5.82;;;;;;;18.62;40.58;99370.09;5084816;28;20041;-76
2023/04/30 11:30:02;;;;;;;6.15;5.30;;;;;;;18.67;40.40;99397.38;5085105;28;20174;-76
2023/04/30 11:32:33;;;;;;;7.53;5.93;;;;;;;18.58;40.35;99384.75;5085462;28;20090;-75
2023/04/30 11:35:02;;;;;;;7.10;5.68;;;;;;;18.07;40.91;99337.31;5085094;28;20130;-75